Time;durP1;ratioP1;P1;durP2;ratioP2;P2;SDS_P1;SDS_P2;PMS_P1;PMS_P2;Temp;Humidity;BMP_temperature;BMP_pressure;BME280_temperature;BME280_humidity;BME280_pressure;Samples;Min_cycle;Max_cycle;Signal;HPM_P1;HPM_P2
2022/03/20 00:00:17;;;;;;;22.13;14.48;;;;;;;5.76;40.02;97738.31;4876766;29;20144;-81
2022/03/20 00:02:45;;;;;;;20.25;14.23;;;;;;;5.80;39.65;97738.91;4874372;29;20055;-82
2022/03/20 00:05:14;;;;;;;19.38;14.40;;;;;;;5.74;39.75;97733.25;4875315;29;20113;-82
2022/03/20 00:07:44;;;;;;;23.40;15.30;;;;;;;5.74;39.71;97737.63;4876807;29;20092;-82
2022/03/20 00:10:12;;;;;;;21.17;15.07;;;;;;;5.74;39.89;97748.78;4879809;29;20049;-82
2022/03/20 00:12:42;;;;;;;23.15;15.32;;;;;;;5.75;39.54;97739.25;4880904;29;20049;-82
2022/03/20 00:15:10;;;;;;;24.20;15.15;;;;;;;5.77;39.75;97737.38;4882254;29;20064;-82
2022/03/20 00:17:38;;;;;;;23.30;14.73;;;;;;;5.76;39.63;97738.31;4881243;29;20097;-82
2022/03/20 00:20:07;;;;;;;23.17;15.18;;;;;;;5.77;39.92;97733.03;4880377;29;20091;-82
2022/03/20 00:22:37;;;;;;;23.83;15.43;;;;;;;5.78;39.98;97733.84;4878053;29;20054;-82
2022/03/20 00:25:06;;;;;;;21.77;16.00;;;;;;;5.80;39.82;97731.13;4876668;29;20053;-82
2022/03/20 00:27:34;;;;;;;20.75;14.85;;;;;;;5.76;39.81;97726.19;4875724;29;20388;-82
2022/03/20 00:30:04;;;;;;;21.45;15.40;;;;;;;5.76;40.73;97723.59;4876273;29;20112;-82
2022/03/20 00:32:32;;;;;;;22.38;14.82;;;;;;;5.80;40.82;97718.19;4875402;29;20089;-82
2022/03/20 00:35:00;;;;;;;24.67;15.68;;;;;;;5.81;40.33;97718.03;4877109;29;20109;-83
2022/03/20 00:37:28;;;;;;;24.48;15.77;;;;;;;5.81;40.68;97712.88;4878625;29;20061;-82
2022/03/20 00:39:56;;;;;;;21.15;15.43;;;;;;;5.83;40.56;97710.16;4880017;29;20061;-82
2022/03/20 00:42:23;;;;;;;21.20;16.20;;;;;;;5.81;41.35;97714.66;4880630;29;20112;-82
2022/03/20 00:44:51;;;;;;;25.38;17.27;;;;;;;5.77;40.20;97714.06;4878188;29;20084;-82
2022/03/20 00:47:20;;;;;;;23.90;17.23;;;;;;;5.74;41.20;97716.91;4875913;29;20071;-82
2022/03/20 00:49:48;;;;;;;27.10;16.15;;;;;;;5.72;40.77;97718.78;4876195;29;20117;-82
2022/03/20 00:52:15;;;;;;;25.17;17.27;;;;;;;5.66;41.08;97725.28;4874779;29;20060;-82
2022/03/20 00:54:43;;;;;;;27.15;18.48;;;;;;;5.61;40.99;97714.47;4874474;29;20064;-82
2022/03/20 00:57:12;;;;;;;24.33;16.15;;;;;;;5.62;40.87;97704.94;4873062;29;20075;-82
2022/03/20 00:59:39;;;;;;;23.60;16.05;;;;;;;5.63;41.48;97709.19;4872765;29;20144;-82
2022/03/20 01:02:07;;;;;;;25.25;18.08;;;;;;;5.65;41.27;97715.88;4872765;29;20054;-82
2022/03/20 01:04:37;;;;;;;26.95;16.98;;;;;;;5.66;41.93;97719.28;4872324;29;20049;-82
2022/03/20 01:07:06;;;;;;;23.08;17.27;;;;;;;5.69;42.16;97719.88;4872450;29;20054;-82
2022/03/20 01:09:33;;;;;;;23.13;16.70;;;;;;;5.68;41.74;97718.22;4880842;29;20050;-82
2022/03/20 01:12:02;;;;;;;25.10;16.83;;;;;;;5.69;42.03;97738.00;4879211;29;20068;-82
2022/03/20 01:14:30;;;;;;;27.45;17.00;;;;;;;5.69;41.46;97730.22;4876922;29;20050;-82
2022/03/20 01:16:58;;;;;;;26.88;17.00;;;;;;;5.65;41.54;97733.19;4875890;29;20054;-82
2022/03/20 01:19:26;;;;;;;25.02;16.75;;;;;;;5.61;41.96;97732.59;4875896;29;20063;-82
2022/03/20 01:21:56;;;;;;;26.83;17.80;;;;;;;5.56;42.11;97722.63;4876193;29;20049;-82
2022/03/20 01:24:24;;;;;;;27.65;17.55;;;;;;;5.54;41.70;97718.50;4875610;29;20060;-81
2022/03/20 01:26:51;;;;;;;24.63;16.17;;;;;;;5.52;42.19;97710.03;4873860;29;20085;-82
2022/03/20 01:29:19;;;;;;;25.55;18.48;;;;;;;5.50;42.35;97711.94;4873881;29;20104;-82
2022/03/20 01:31:47;;;;;;;23.02;17.00;;;;;;;5.49;42.49;97710.31;4874438;29;20144;-82
2022/03/20 01:34:14;;;;;;;21.85;16.58;;;;;;;5.48;43.18;97713.81;4873827;29;20063;-82
2022/03/20 01:36:42;;;;;;;28.02;16.60;;;;;;;5.49;43.13;97707.72;4873866;29;20053;-82
2022/03/20 01:39:11;;;;;;;26.83;17.65;;;;;;;5.50;42.63;97717.94;4874620;29;20053;-82
2022/03/20 01:41:39;;;;;;;25.33;17.50;;;;;;;5.50;42.58;97702.41;4874910;29;20056;-81
2022/03/20 01:44:07;;;;;;;26.58;18.20;;;;;;;5.53;43.27;97715.13;4875025;29;20072;-82
2022/03/20 01:46:34;;;;;;;28.05;18.88;;;;;;;5.54;43.07;97708.16;4875234;29;20061;-82
2022/03/20 01:49:02;;;;;;;27.60;19.58;;;;;;;5.57;42.84;97710.50;4874821;29;20084;-81
2022/03/20 01:54:17;;;;;;;28.95;19.27;;;;;;;5.53;42.72;97719.44;4879849;29;20034;-81
2022/03/20 01:56:46;;;;;;;30.90;18.27;;;;;;;5.54;43.23;97723.69;4886691;29;20033;-82
2022/03/20 01:59:16;;;;;;;27.23;16.98;;;;;;;5.54;43.00;97718.50;4884003;29;20045;-82
2022/03/20 02:01:44;;;;;;;25.38;17.45;;;;;;;5.52;42.88;97715.22;4872071;29;20053;-82
2022/03/20 02:04:13;;;;;;;28.08;19.00;;;;;;;5.46;42.96;97713.13;4880410;29;20041;-82
2022/03/20 02:06:42;;;;;;;27.52;18.02;;;;;;;5.42;42.80;97716.88;4885832;29;20037;-82
2022/03/20 02:09:10;;;;;;;26.70;17.77;;;;;;;5.42;43.41;97709.94;4878742;29;20132;-82
2022/03/20 02:11:40;;;;;;;25.63;19.42;;;;;;;5.42;43.51;97706.53;4875964;29;20137;-81
2022/03/20 02:14:08;;;;;;;27.25;17.63;;;;;;;5.39;43.64;97696.44;4875098;29;20061;-82
2022/03/20 02:16:36;;;;;;;30.20;19.88;;;;;;;5.37;43.74;97693.97;4873500;29;20421;-82
2022/03/20 02:19:07;;;;;;;25.85;17.88;;;;;;;5.34;43.53;97695.03;4873286;29;20065;-82
2022/03/20 02:21:40;;;;;;;28.77;19.40;;;;;;;5.32;43.90;97681.41;4874241;29;20059;-82
2022/03/20 02:24:29;;;;;;;29.38;19.67;;;;;;;5.32;44.31;97686.56;4874630;29;20110;-82
2022/03/20 02:27:08;;;;;;;32.63;18.70;;;;;;;5.26;43.95;97692.22;4873127;29;20049;-82
2022/03/20 02:29:36;;;;;;;31.85;19.80;;;;;;;5.22;44.18;97687.44;4939440;23;20118;-80
2022/03/20 02:32:06;;;;;;;28.45;18.15;;;;;;;5.15;44.39;97682.72;4886403;29;20041;-81
2022/03/20 02:34:35;;;;;;;31.42;20.15;;;;;;;5.13;44.18;97678.63;4865976;29;20076;-80
2022/03/20 02:37:06;;;;;;;28.42;18.92;;;;;;;5.06;44.16;97674.88;4863826;29;20053;-81
2022/03/20 02:39:34;;;;;;;28.15;19.15;;;;;;;5.04;44.61;97677.59;4864001;29;20136;-80
2022/03/20 02:42:13;;;;;;;28.33;19.13;;;;;;;5.01;44.68;97671.81;4863990;29;20132;-80
2022/03/20 02:45:00;;;;;;;28.42;18.50;;;;;;;4.96;44.88;97664.44;4863730;29;20078;-81
2022/03/20 02:47:31;;;;;;;29.95;19.70;;;;;;;4.87;44.41;97673.72;4863776;29;20090;-80
2022/03/20 02:50:03;;;;;;;32.05;19.88;;;;;;;4.80;45.27;97659.63;4863494;29;20075;-80
2022/03/20 02:52:45;;;;;;;27.98;18.17;;;;;;;4.75;45.24;97659.19;4863831;29;20502;-80
2022/03/20 02:55:15;;;;;;;26.42;19.08;;;;;;;4.71;45.13;97666.34;4863799;29;20054;-81
2022/03/20 02:57:47;;;;;;;28.17;19.38;;;;;;;4.70;45.65;97666.44;4863452;29;20062;-80
2022/03/20 03:00:18;;;;;;;30.67;20.17;;;;;;;4.69;45.65;97659.66;4863740;29;20061;-80
2022/03/20 03:02:47;;;;;;;27.17;19.33;;;;;;;4.66;45.55;97652.16;4863438;29;20085;-80
2022/03/20 03:05:18;;;;;;;30.67;19.02;;;;;;;4.63;45.61;97673.03;4863349;29;20493;-81
2022/03/20 03:13:26;;;;;;;28.38;18.90;;;;;;;4.58;45.87;97681.16;4863191;29;20110;-80
2022/03/20 03:15:56;;;;;;;28.65;19.00;;;;;;;4.57;45.92;97684.69;4862862;29;20057;-80
2022/03/20 03:18:26;;;;;;;29.58;19.23;;;;;;;4.57;46.62;97676.94;4863539;29;20050;-81
2022/03/20 03:20:55;;;;;;;29.23;20.23;;;;;;;4.58;46.16;97677.75;4863237;29;20061;-80
2022/03/20 03:23:26;;;;;;;27.60;19.10;;;;;;;4.57;46.09;97678.69;4863199;29;20065;-80
2022/03/20 03:25:55;;;;;;;27.10;18.42;;;;;;;4.54;46.53;97684.91;4863645;29;20061;-80
2022/03/20 03:28:32;;;;;;;31.58;18.80;;;;;;;4.56;46.78;97682.22;4863265;29;20453;-81
2022/03/20 03:31:01;;;;;;;27.77;18.33;;;;;;;4.58;46.37;97685.50;4862136;29;20061;-80
2022/03/20 03:33:30;;;;;;;27.88;19.08;;;;;;;4.55;46.36;97691.75;4862878;29;20057;-80
2022/03/20 03:35:58;;;;;;;30.85;19.70;;;;;;;4.55;46.59;97686.56;4862607;29;20128;-81
2022/03/20 03:38:31;;;;;;;29.08;19.40;;;;;;;4.59;46.62;97689.72;4862976;29;20562;-81
2022/03/20 03:40:59;;;;;;;29.25;19.23;;;;;;;4.61;47.02;97703.34;4862859;29;20504;-80
2022/03/20 03:43:29;;;;;;;28.25;19.10;;;;;;;4.66;47.06;97709.00;4862989;29;20106;-80
2022/03/20 03:45:58;;;;;;;29.60;19.63;;;;;;;4.68;46.74;97722.59;4862529;29;20053;-81
2022/03/20 03:48:27;;;;;;;32.30;19.05;;;;;;;4.68;46.56;97712.28;4862628;29;20144;-80
2022/03/20 03:50:57;;;;;;;30.38;19.75;;;;;;;4.69;48.27;97717.34;4862397;29;20133;-80
2022/03/20 03:53:25;;;;;;;30.58;18.85;;;;;;;4.74;47.53;97719.56;4862584;29;20077;-80
2022/03/20 03:55:56;;;;;;;28.73;19.98;;;;;;;4.78;47.89;97717.56;4862410;29;20086;-81
2022/03/20 03:58:25;;;;;;;27.33;18.80;;;;;;;4.81;47.13;97733.69;4862612;29;20432;-81
2022/03/20 04:00:54;;;;;;;29.58;20.40;;;;;;;4.82;46.97;97729.31;4862466;29;20147;-80
2022/03/20 04:03:23;;;;;;;30.10;20.60;;;;;;;4.80;46.71;97729.44;4862594;29;20060;-80
2022/03/20 04:05:53;;;;;;;26.95;19.00;;;;;;;4.79;46.89;97740.72;4862184;29;20432;-80
2022/03/20 04:08:22;;;;;;;34.80;20.75;;;;;;;4.82;47.35;97745.66;4862330;29;20086;-80
2022/03/20 04:10:50;;;;;;;31.15;19.52;;;;;;;4.87;46.85;97743.53;4862194;29;20070;-80
2022/03/20 04:13:21;;;;;;;27.58;19.77;;;;;;;4.91;46.95;97728.63;4862295;29;20136;-80
2022/03/20 04:15:52;;;;;;;30.33;19.90;;;;;;;4.88;46.75;97740.03;4861982;29;20081;-81
2022/03/20 04:18:21;;;;;;;29.73;20.90;;;;;;;4.84;47.18;97738.59;4861682;29;20160;-80
2022/03/20 04:20:52;;;;;;;31.80;19.02;;;;;;;4.84;47.18;97730.03;4862128;29;20052;-81
2022/03/20 04:26:07;;;;;;;30.98;20.42;;;;;;;4.79;47.06;97719.19;4861978;29;20057;-81
2022/03/20 04:28:37;;;;;;;29.08;19.40;;;;;;;4.77;47.48;97727.09;4861947;29;20061;-80
2022/03/20 04:31:07;;;;;;;29.92;20.63;;;;;;;4.78;47.34;97715.81;4861767;29;20049;-80
2022/03/20 04:33:35;;;;;;;31.52;20.77;;;;;;;4.79;47.63;97719.19;4862142;29;20061;-80
2022/03/20 04:36:07;;;;;;;32.08;20.85;;;;;;;4.81;47.74;97717.31;4862028;29;20060;-81
2022/03/20 04:38:35;;;;;;;30.20;20.35;;;;;;;4.83;47.46;97731.81;4871123;29;20092;-81
2022/03/20 04:41:06;;;;;;;32.20;19.85;;;;;;;4.89;47.57;97733.06;4877260;29;20045;-80
2022/03/20 04:43:35;;;;;;;30.58;20.15;;;;;;;4.91;47.76;97755.28;4871501;29;20058;-80
2022/03/20 04:46:06;;;;;;;29.73;19.90;;;;;;;4.95;48.16;97756.69;4867482;29;20058;-80
2022/03/20 04:59:38;;;;;;;27.55;19.35;;;;;;;4.97;47.25;97756.59;4861745;29;20111;-80
2022/03/20 05:02:08;;;;;;;31.30;20.75;;;;;;;4.97;47.41;97753.19;4861721;29;20057;-81
2022/03/20 05:04:38;;;;;;;31.83;20.17;;;;;;;4.96;47.94;97747.16;4861596;29;20065;-80
2022/03/20 05:07:07;;;;;;;29.45;20.02;;;;;;;4.95;47.99;97748.13;4862059;29;20054;-81
2022/03/20 05:15:05;;;;;;;28.48;19.95;;;;;;;4.88;47.47;97755.53;4840849;29;20049;-80
2022/03/20 05:17:36;;;;;;;32.45;20.52;;;;;;;4.88;47.34;97767.66;4861697;29;20054;-82
2022/03/20 05:20:05;;;;;;;32.10;20.77;;;;;;;4.83;47.65;97757.66;4869597;29;20093;-81
2022/03/20 05:22:38;;;;;;;30.15;20.98;;;;;;;4.80;47.90;97760.47;4872764;29;20113;-80
2022/03/20 05:25:08;;;;;;;;;;;;;;;4.81;48.08;97764.72;4867834;29;20045;-81
2022/03/20 05:27:38;;;;;;;32.20;20.33;;;;;;;4.81;47.85;97762.13;4862842;29;20401;-81
2022/03/20 05:30:08;;;;;;;31.33;20.80;;;;;;;4.78;48.07;97770.09;4865205;29;20549;-80
2022/03/20 05:32:40;;;;;;;32.25;20.63;;;;;;;4.74;47.98;97774.69;4862477;29;20049;-81
2022/03/20 05:35:11;;;;;;;28.48;19.15;;;;;;;4.71;47.93;97781.84;4861180;29;20049;-80
2022/03/20 05:37:40;;;;;;;35.55;20.63;;;;;;;4.70;49.52;97781.03;4861963;29;20061;-80
2022/03/20 05:40:10;;;;;;;30.80;22.33;;;;;;;4.67;48.36;97785.59;4861129;29;20480;-80
2022/03/20 05:42:39;;;;;;;32.08;21.23;;;;;;;4.59;48.61;97795.66;4861046;29;20053;-81
2022/03/20 05:45:10;;;;;;;30.52;21.00;;;;;;;4.53;48.63;97802.97;4861324;29;20398;-80
2022/03/20 05:47:41;;;;;;;32.95;20.80;;;;;;;4.54;49.20;97798.59;4861544;29;20113;-80
2022/03/20 05:50:11;;;;;;;28.63;19.90;;;;;;;4.60;49.29;97805.09;4861194;29;20082;-80
2022/03/20 05:52:40;;;;;;;33.20;21.58;;;;;;;4.66;49.05;97809.81;4860953;29;20244;-80
2022/03/20 05:55:10;;;;;;;30.55;21.42;;;;;;;4.67;48.93;97814.84;4863760;29;20049;-80
2022/03/20 05:58:03;;;;;;;29.58;20.63;;;;;;;4.67;48.20;97814.03;4864492;29;20061;-80
2022/03/20 06:00:31;;;;;;;35.65;20.60;;;;;;;4.67;48.29;97814.03;4864285;29;20057;-80
2022/03/20 06:03:02;;;;;;;32.03;20.83;;;;;;;4.64;48.49;97816.84;4864285;29;20053;-80
2022/03/20 06:05:31;;;;;;;30.45;19.90;;;;;;;4.60;48.15;97818.00;4864062;29;20475;-80
2022/03/20 06:08:01;;;;;;;32.35;20.92;;;;;;;4.60;48.74;97812.84;4863531;29;20060;-83
2022/03/20 06:10:29;;;;;;;30.67;21.45;;;;;;;4.63;48.84;97820.34;4864480;29;20046;-81
2022/03/20 06:12:58;;;;;;;31.45;22.08;;;;;;;4.64;48.72;97822.03;4864720;29;20465;-81
2022/03/20 06:15:28;;;;;;;29.88;19.98;;;;;;;4.65;49.39;97821.88;4864606;29;20060;-80
2022/03/20 06:17:57;;;;;;;29.98;19.95;;;;;;;4.72;49.03;97822.25;4863891;29;20117;-81
2022/03/20 06:20:27;;;;;;;31.20;21.65;;;;;;;4.80;48.83;97835.44;4864075;29;20097;-81
2022/03/20 06:22:56;;;;;;;29.40;20.55;;;;;;;4.84;48.47;97826.50;4864281;29;20050;-81
2022/03/20 06:25:25;;;;;;;31.15;20.90;;;;;;;4.83;48.24;97827.47;4864161;29;20145;-81
2022/03/20 06:27:57;;;;;;;28.70;19.77;;;;;;;4.85;48.87;97832.50;4864417;29;20056;-81
2022/03/20 06:30:26;;;;;;;33.05;21.48;;;;;;;4.91;48.78;97840.59;4864529;29;20053;-80
2022/03/20 06:32:56;;;;;;;33.92;21.15;;;;;;;4.99;51.01;97832.28;4864211;29;20117;-81
2022/03/20 06:35:25;;;;;;;31.25;21.90;;;;;;;5.06;48.76;97840.41;4881224;29;20053;-81
2022/03/20 06:37:56;;;;;;;29.33;20.25;;;;;;;5.08;48.24;97841.94;4881528;29;20069;-81
2022/03/20 06:40:26;;;;;;;28.98;20.20;;;;;;;5.08;47.80;97846.28;4877485;29;20081;-81
2022/03/20 06:42:55;;;;;;;31.98;22.08;;;;;;;5.08;48.00;97848.88;4863954;29;20061;-80
2022/03/20 06:45:24;;;;;;;28.52;19.38;;;;;;;5.10;48.13;97849.56;4863770;29;20054;-81
2022/03/20 06:47:53;;;;;;;29.17;19.90;;;;;;;5.16;48.46;97841.34;4863658;29;20078;-80
2022/03/20 06:50:22;;;;;;;29.20;19.70;;;;;;;5.19;47.96;97851.47;4864085;29;20140;-81
2022/03/20 06:52:51;;;;;;;31.70;21.08;;;;;;;5.21;47.87;97859.13;4863987;29;20061;-81
2022/03/20 06:55:22;;;;;;;32.17;20.02;;;;;;;5.29;48.30;97861.91;4863909;29;20058;-80
2022/03/20 06:57:51;;;;;;;29.92;20.20;;;;;;;5.32;47.51;97857.34;4863905;29;20057;-81
2022/03/20 07:00:20;;;;;;;30.55;20.65;;;;;;;5.37;47.52;97862.97;4862164;29;20136;-81
2022/03/20 07:02:50;;;;;;;30.58;20.30;;;;;;;5.47;47.73;97867.47;4863128;29;20508;-80
2022/03/20 07:05:19;;;;;;;29.25;20.73;;;;;;;5.58;47.30;97867.44;4862378;29;20432;-81
2022/03/20 07:07:50;;;;;;;32.25;21.15;;;;;;;5.68;46.65;97865.78;4862975;29;20050;-81
2022/03/20 07:10:23;;;;;;;30.60;20.95;;;;;;;5.73;46.87;97880.97;4863065;29;20058;-80
2022/03/20 07:13:48;;;;;;;31.17;19.92;;;;;;;5.83;46.99;97870.72;4863265;29;20132;-80
2022/03/20 07:15:45;;;;;;;31.98;20.77;;;;;;;5.93;46.82;97869.88;4862942;29;20061;-80
2022/03/20 07:18:16;;;;;;;33.03;20.70;;;;;;;6.04;46.51;97876.00;4862955;29;20057;-80
2022/03/20 07:20:47;;;;;;;31.17;20.77;;;;;;;6.08;46.37;97874.78;4863149;29;20420;-81
2022/03/20 07:23:16;;;;;;;32.25;21.75;;;;;;;6.11;46.48;97871.97;4863425;29;20061;-80
2022/03/20 07:31:21;;;;;;;30.52;21.08;;;;;;;6.46;45.83;97874.31;4862609;29;20100;-80
2022/03/20 07:33:51;;;;;;;30.35;20.60;;;;;;;6.59;46.11;97874.97;4862518;29;20080;-81
2022/03/20 07:36:21;;;;;;;26.80;19.52;;;;;;;6.69;45.82;97869.00;4862371;29;20049;-80
2022/03/20 07:38:51;;;;;;;30.15;20.45;;;;;;;6.79;45.88;97865.53;4862545;29;20077;-81
2022/03/20 07:41:22;;;;;;;28.33;19.63;;;;;;;6.91;44.98;97879.28;4862269;29;20076;-80
2022/03/20 07:43:55;;;;;;;30.85;20.23;;;;;;;6.93;44.57;97874.78;4862098;29;20105;-80
2022/03/20 07:46:26;;;;;;;30.58;20.48;;;;;;;7.03;45.25;97876.63;4862274;29;20061;-81
2022/03/20 07:51:46;;;;;;;29.50;20.13;;;;;;;7.29;44.65;97882.22;4861893;29;20102;-80
2022/03/20 07:54:19;;;;;;;28.27;20.65;;;;;;;7.42;44.19;97872.44;4861846;29;20056;-81
2022/03/20 07:57:07;;;;;;;32.10;20.70;;;;;;;7.61;43.30;97882.91;4860872;29;20053;-80
2022/03/20 08:02:34;;;;;;;29.83;20.98;;;;;;;8.02;42.99;97878.50;4860547;29;20054;-81
2022/03/20 08:05:36;;;;;;;28.00;19.10;;;;;;;8.25;42.71;97876.47;4871005;29;20063;-81
2022/03/20 08:19:05;;;;;;;26.57;20.33;;;;;;;9.40;40.54;97878.28;5619525;23;20061;-91
2022/03/20 08:21:39;;;;;;;27.20;20.77;;;;;;;9.64;40.17;97882.97;4881526;29;20046;-89
2022/03/20 08:24:19;;;;;;;27.15;19.65;;;;;;;9.92;40.06;97880.34;4883095;29;20071;-91
2022/03/20 08:26:53;;;;;;;25.88;19.42;;;;;;;10.13;39.59;97884.50;4882343;29;20054;-92
2022/03/20 08:29:35;;;;;;;26.73;19.52;;;;;;;10.38;38.82;97877.75;4882408;29;20105;-89
2022/03/20 08:34:48;;;;;;;24.73;18.83;;;;;;;10.97;38.20;97881.47;5015180;23;20054;-80
2022/03/20 08:37:16;;;;;;;29.25;20.70;;;;;;;11.21;37.80;97880.00;4840044;29;20066;-81
2022/03/20 08:39:43;;;;;;;26.08;20.42;;;;;;;11.42;37.62;97877.84;4827667;29;20058;-80
2022/03/20 08:42:11;;;;;;;26.90;19.90;;;;;;;11.61;37.07;97882.03;4825011;29;20529;-81
2022/03/20 08:44:39;;;;;;;27.52;20.92;;;;;;;11.84;36.78;97871.81;4827309;29;20050;-81
2022/03/20 08:47:07;;;;;;;23.67;18.42;;;;;;;12.07;36.46;97868.63;4835629;29;20049;-81
2022/03/20 08:49:35;;;;;;;24.08;18.75;;;;;;;12.34;35.91;97870.19;4828164;29;20615;-81
2022/03/20 08:52:05;;;;;;;25.67;19.30;;;;;;;12.61;35.03;97876.09;4824512;29;20050;-81
2022/03/20 08:54:33;;;;;;;23.58;18.85;;;;;;;12.85;35.23;97886.53;4825423;29;20054;-81
2022/03/20 08:57:05;;;;;;;22.35;18.10;;;;;;;13.13;35.12;97883.59;4827002;29;20070;-81
2022/03/20 08:59:33;;;;;;;30.85;22.80;;;;;;;13.41;34.92;97880.63;4825234;29;20061;-81
2022/03/20 09:02:01;;;;;;;35.00;25.33;;;;;;;13.66;34.26;97882.16;4825368;29;20054;-81
2022/03/20 09:04:44;;;;;;;26.05;20.40;;;;;;;13.77;33.10;97886.22;4824568;29;20137;-81
2022/03/20 09:07:30;;;;;;;25.73;19.15;;;;;;;13.83;33.44;97885.53;4823267;29;20115;-81
2022/03/20 09:10:15;;;;;;;23.60;18.23;;;;;;;13.99;32.62;97880.22;4824581;29;20054;-81
2022/03/20 09:28:56;;;;;;;21.48;17.52;;;;;;;15.96;30.14;97881.16;4921707;23;20115;-80
2022/03/20 09:31:24;;;;;;;26.42;19.77;;;;;;;16.26;29.97;97879.25;4826682;29;20062;-80
2022/03/20 09:33:52;;;;;;;21.85;18.00;;;;;;;16.59;30.75;97878.75;4826248;29;20502;-80
2022/03/20 09:36:20;;;;;;;24.48;18.52;;;;;;;17.00;29.46;97883.41;4825987;29;20054;-80
2022/03/20 09:38:47;;;;;;;21.95;17.38;;;;;;;17.44;29.17;97882.28;4826495;29;20061;-80
2022/03/20 09:41:15;;;;;;;22.98;17.25;;;;;;;17.87;27.94;97886.59;4841333;23;20037;-79
2022/03/20 09:43:46;;;;;;;21.60;18.17;;;;;;;18.25;27.07;97883.47;4850143;29;20047;-83
2022/03/20 09:46:19;;;;;;;21.52;17.75;;;;;;;18.62;26.43;97883.94;4849363;29;20076;-83
2022/03/20 09:48:48;;;;;;;21.08;17.08;;;;;;;18.99;26.86;97879.94;4849378;29;20030;-83
2022/03/20 09:51:16;;;;;;;20.52;16.65;;;;;;;19.47;26.96;97884.97;4849445;29;20080;-83
2022/03/20 09:53:44;;;;;;;21.05;16.75;;;;;;;19.89;24.85;97885.47;4849919;29;20050;-82
2022/03/20 09:56:13;;;;;;;18.38;16.45;;;;;;;20.24;25.47;97890.41;4849141;29;20065;-83
2022/03/20 09:58:42;;;;;;;20.30;17.08;;;;;;;20.62;24.15;97883.47;4848952;29;20062;-82
2022/03/20 10:01:10;;;;;;;19.45;17.00;;;;;;;20.94;23.57;97877.13;4849469;29;20436;-83
2022/03/20 10:03:40;;;;;;;18.77;16.77;;;;;;;21.34;22.71;97886.56;4850268;29;20497;-83
2022/03/20 10:06:16;;;;;;;18.80;15.55;;;;;;;21.97;22.99;97882.84;4850791;29;20068;-83
2022/03/20 10:09:07;;;;;;;17.20;15.05;;;;;;;22.99;23.51;97888.16;4850178;29;20062;-82
2022/03/20 10:11:40;;;;;;;20.30;16.45;;;;;;;24.04;20.76;97891.00;4848695;29;20050;-83
2022/03/20 10:14:15;;;;;;;18.52;16.20;;;;;;;24.80;18.95;97896.16;4849704;29;20049;-82
2022/03/20 10:16:45;;;;;;;19.30;15.13;;;;;;;25.65;18.49;97892.38;4850194;29;20121;-82
2022/03/20 10:19:29;;;;;;;18.00;16.05;;;;;;;26.47;17.30;97895.19;4848629;29;20031;-84
2022/03/20 10:21:59;;;;;;;17.20;15.40;;;;;;;27.46;17.58;97901.94;4846739;29;20058;-83
2022/03/20 10:24:30;;;;;;;16.23;14.52;;;;;;;28.26;16.08;97917.84;4848494;29;20054;-83
2022/03/20 10:27:09;;;;;;;16.67;14.88;;;;;;;28.43;14.69;97912.25;4848491;29;20059;-83
2022/03/20 10:29:51;;;;;;;16.30;14.60;;;;;;;28.65;15.57;97914.72;4848954;29;20058;-83
2022/03/20 10:32:19;;;;;;;21.38;18.38;;;;;;;29.21;14.82;97916.63;4847993;29;20093;-83
2022/03/20 10:34:53;;;;;;;20.08;16.70;;;;;;;29.36;14.46;97915.81;4847134;29;20042;-82
2022/03/20 10:37:23;;;;;;;19.15;16.50;;;;;;;29.66;14.83;97922.22;4847256;29;20054;-83
2022/03/20 10:40:10;;;;;;;21.15;16.90;;;;;;;29.99;13.44;97916.19;4845088;29;20062;-83
2022/03/20 10:42:39;;;;;;;17.25;15.25;;;;;;;29.90;14.19;97911.66;4848045;29;20038;-83
2022/03/20 10:45:09;;;;;;;17.15;15.45;;;;;;;30.17;13.32;97911.25;4848026;29;20098;-83
2022/03/20 10:47:37;;;;;;;16.13;14.52;;;;;;;30.68;14.46;97916.38;4848256;29;20506;-83
2022/03/20 10:50:10;;;;;;;17.48;15.70;;;;;;;30.90;13.03;97913.28;4848459;29;20064;-83
2022/03/20 10:52:39;;;;;;;17.80;15.93;;;;;;;30.80;13.19;97921.41;4848111;29;20059;-83
2022/03/20 10:55:10;;;;;;;16.80;15.10;;;;;;;30.95;14.04;97926.72;4848892;29;20039;-80
2022/03/20 10:57:39;;;;;;;18.58;16.77;;;;;;;31.34;12.93;97920.44;4847321;29;20057;-80
2022/03/20 11:00:14;;;;;;;17.92;15.95;;;;;;;31.63;12.50;97924.22;4847629;29;20142;-80
2022/03/20 11:02:42;;;;;;;17.70;15.80;;;;;;;31.90;12.82;97912.84;4848339;29;20034;-81
2022/03/20 11:05:13;;;;;;;17.30;15.52;;;;;;;32.05;12.16;97923.47;4848401;29;20061;-81
2022/03/20 11:07:43;;;;;;;16.45;14.85;;;;;;;32.26;12.15;97921.31;4847796;29;20053;-81
2022/03/20 11:10:12;;;;;;;16.30;14.60;;;;;;;32.26;12.17;97921.31;4847828;29;20054;-81
2022/03/20 11:12:43;;;;;;;16.63;14.68;;;;;;;32.53;12.00;97919.91;4848831;29;20046;-81
2022/03/20 11:15:12;;;;;;;19.15;15.57;;;;;;;32.60;11.57;97923.03;4853916;29;20087;-80
2022/03/20 11:17:44;;;;;;;17.02;14.88;;;;;;;32.48;11.67;97912.66;4866838;29;20042;-81
2022/03/20 11:20:19;;;;;;;18.60;14.60;;;;;;;32.71;11.07;97920.97;4865927;29;20067;-80
2022/03/20 11:22:53;;;;;;;17.13;14.73;;;;;;;32.55;11.36;97923.13;4866876;29;20102;-81
2022/03/20 11:25:24;;;;;;;17.58;15.75;;;;;;;32.71;11.64;97927.19;4866995;29;20046;-81
2022/03/20 11:28:01;;;;;;;17.95;15.98;;;;;;;33.09;10.60;97924.44;4866820;29;20053;-81
2022/03/20 11:30:34;;;;;;;14.90;13.32;;;;;;;33.41;11.62;97918.22;4866481;29;20061;-81
2022/03/20 11:33:04;;;;;;;15.43;13.85;;;;;;;33.72;11.31;97917.66;4866068;29;20081;-81
2022/03/20 11:35:44;;;;;;;16.67;14.45;;;;;;;34.04;10.49;97915.91;4866578;29;20053;-81
2022/03/20 11:38:15;;;;;;;16.80;14.45;;;;;;;34.33;10.05;97917.50;4866303;29;20049;-81
2022/03/20 11:41:17;;;;;;;15.37;13.77;;;;;;;34.46;10.35;97909.34;4867182;29;20053;-81
2022/03/20 11:43:47;;;;;;;;;;;;;;;34.99;10.10;97907.84;4866761;29;20041;-81
2022/03/20 11:46:27;;;;;;;16.17;14.48;;;;;;;34.85;9.97;97904.41;4866476;29;19949;-81
2022/03/20 11:49:22;;;;;;;15.93;13.55;;;;;;;34.85;9.62;97905.19;4866756;29;20050;-81
2022/03/20 11:52:09;;;;;;;14.82;13.13;;;;;;;35.11;9.50;97914.63;4866163;29;20057;-81
2022/03/20 11:54:57;;;;;;;13.82;12.43;;;;;;;35.33;10.00;97898.31;4866438;29;20071;-81
2022/03/20 12:00:26;;;;;;;16.13;13.98;;;;;;;35.53;8.97;97899.69;3964944;24;20061;-81
2022/03/20 12:03:52;;;;;;;13.98;12.50;;;;;;;35.44;9.89;97896.94;4884749;29;20057;-80
2022/03/20 12:06:59;;;;;;;15.27;13.65;;;;;;;35.56;9.38;97901.78;4884873;29;20033;-81
2022/03/20 12:10:04;;;;;;;14.90;13.45;;;;;;;35.74;9.17;97889.09;4884768;29;20054;-80
2022/03/20 12:12:44;;;;;;;14.43;12.95;;;;;;;35.81;9.17;97891.34;4864289;23;20050;-83
2022/03/20 12:15:12;;;;;;;12.80;11.57;;;;;;;35.71;9.34;97891.63;4829065;29;20137;-84
2022/03/20 12:18:03;;;;;;;19.63;17.55;;;;;;;34.69;9.81;97882.28;4828074;29;20074;-84
2022/03/20 12:21:07;;;;;;;17.73;13.52;;;;;;;32.60;10.50;97874.41;4828822;29;20054;-82
2022/03/20 12:23:40;;;;;;;14.90;13.40;;;;;;;30.67;11.91;97866.28;4827926;29;20062;-82
2022/03/20 12:26:36;;;;;;;13.88;12.38;;;;;;;28.89;13.20;97865.88;4826813;29;20050;-83
2022/03/20 12:29:34;;;;;;;15.45;13.25;;;;;;;27.38;14.43;97869.44;4820026;29;20070;-83
2022/03/20 12:32:05;;;;;;;16.00;13.02;;;;;;;26.18;14.55;97857.19;4833210;29;20433;-87
2022/03/20 12:34:33;;;;;;;14.30;12.73;;;;;;;25.16;15.42;97854.78;4847975;29;20038;-84
2022/03/20 12:46:24;;;;;;;15.40;13.27;;;;;;;22.47;19.79;97842.72;5625438;23;20049;-79
2022/03/20 12:48:55;;;;;;;17.17;13.55;;;;;;;22.19;18.98;97844.13;4848220;29;20102;-78
2022/03/20 12:51:33;;;;;;;17.30;13.85;;;;;;;21.94;19.15;97832.81;4848281;29;20069;-78
2022/03/20 12:54:10;;;;;;;13.77;12.27;;;;;;;21.75;19.75;97834.69;4848362;29;20107;-78
2022/03/20 12:56:51;;;;;;;18.83;14.38;;;;;;;21.54;19.64;97838.63;4848261;29;20042;-78
2022/03/20 12:59:20;;;;;;;16.50;13.43;;;;;;;21.38;19.59;97835.50;4848033;29;20114;-78
2022/03/20 13:01:49;;;;;;;17.40;13.93;;;;;;;21.23;20.59;97837.69;4884449;24;20064;-79
2022/03/20 13:04:18;;;;;;;17.55;14.02;;;;;;;21.09;19.53;97833.53;4885401;29;20058;-79
2022/03/20 13:06:46;;;;;;;19.17;14.77;;;;;;;20.96;20.69;97823.84;4887489;29;20041;-79